createdAt,value
2023-12-02T00:00:30.922Z,992.6
2023-12-02T00:01:45.215Z,992.5
2023-12-02T00:02:59.509Z,992.5
2023-12-02T00:04:13.802Z,992.5
2023-12-02T00:05:28.097Z,992.6
2023-12-02T00:06:42.391Z,992.6
2023-12-02T00:07:56.684Z,992.7
2023-12-02T00:09:10.978Z,992.7
2023-12-02T00:10:25.272Z,992.7
2023-12-02T00:11:39.566Z,992.7
2023-12-02T00:12:53.859Z,992.7
2023-12-02T00:14:08.153Z,992.7
2023-12-02T00:15:22.447Z,992.7
2023-12-02T00:16:35.756Z,992.7
2023-12-02T00:17:50.050Z,992.7
2023-12-02T00:19:04.344Z,992.7
2023-12-02T00:20:18.638Z,992.7
2023-12-02T00:21:32.932Z,992.6
2023-12-02T00:22:47.225Z,992.6
2023-12-02T00:24:00.540Z,992.6
2023-12-02T00:25:14.834Z,992.7
2023-12-02T00:26:29.128Z,992.7
2023-12-02T00:27:43.421Z,992.8
2023-12-02T00:28:57.715Z,992.8
2023-12-02T00:30:12.009Z,992.8
2023-12-02T00:31:26.303Z,992.8
2023-12-02T00:32:40.596Z,992.8
2023-12-02T00:33:54.890Z,992.8
2023-12-02T00:35:09.184Z,992.8
2023-12-02T00:36:23.477Z,992.8
2023-12-02T00:37:37.771Z,992.9
2023-12-02T00:38:52.065Z,993
2023-12-02T00:40:05.375Z,993
2023-12-02T00:41:19.668Z,992.9
2023-12-02T00:42:33.962Z,992.8
2023-12-02T00:43:48.256Z,992.8
2023-12-02T00:45:02.550Z,992.8
2023-12-02T00:46:16.843Z,992.8
2023-12-02T00:47:31.137Z,992.8
2023-12-02T00:48:45.431Z,992.8
2023-12-02T00:49:59.724Z,992.8
2023-12-02T00:51:14.018Z,992.8
2023-12-02T00:52:28.312Z,992.8
2023-12-02T00:53:42.606Z,992.8
2023-12-02T00:54:56.899Z,992.7
2023-12-02T00:56:10.209Z,992.7
2023-12-02T00:57:24.503Z,992.7
2023-12-02T00:58:38.797Z,992.7
2023-12-02T00:59:53.090Z,992.7
2023-12-02T01:01:07.384Z,992.8
2023-12-02T01:02:21.678Z,992.8
2023-12-02T01:03:35.972Z,992.8
2023-12-02T01:04:50.265Z,992.8
2023-12-02T01:06:04.559Z,992.9
2023-12-02T01:07:18.853Z,992.9
2023-12-02T01:08:33.146Z,992.9
2023-12-02T01:09:47.440Z,992.9
2023-12-02T01:11:01.734Z,992.8
2023-12-02T01:12:15.043Z,992.8
2023-12-02T01:13:29.337Z,992.8
2023-12-02T01:14:43.631Z,992.7
2023-12-02T01:15:57.925Z,992.7
2023-12-02T01:17:12.218Z,992.7
2023-12-02T01:18:26.512Z,992.8
2023-12-02T01:19:40.806Z,992.8
2023-12-02T01:20:55.099Z,992.9
2023-12-02T01:22:09.393Z,992.9
2023-12-02T01:23:23.686Z,993
2023-12-02T01:24:37.980Z,993
2023-12-02T01:25:52.274Z,993.1
2023-12-02T01:27:06.568Z,993.1
2023-12-02T01:28:19.877Z,993
2023-12-02T01:29:34.171Z,993
2023-12-02T01:30:48.465Z,993
2023-12-02T01:32:02.758Z,993
2023-12-02T01:33:17.052Z,993
2023-12-02T01:34:31.346Z,993
2023-12-02T01:35:45.640Z,993
2023-12-02T01:36:59.933Z,993
2023-12-02T01:38:14.227Z,992.9
2023-12-02T01:39:28.520Z,992.9
2023-12-02T01:40:42.814Z,992.9
2023-12-02T01:41:57.108Z,992.9
2023-12-02T01:43:11.401Z,993
2023-12-02T01:44:24.711Z,993
2023-12-02T01:45:39.005Z,993
2023-12-02T01:46:53.299Z,992.9
2023-12-02T01:48:07.592Z,992.9
2023-12-02T01:49:21.886Z,992.9
2023-12-02T01:50:36.180Z,992.9
2023-12-02T01:51:50.473Z,992.9
2023-12-02T01:53:04.767Z,992.9
2023-12-02T01:54:19.061Z,992.9
2023-12-02T01:55:33.355Z,992.9
2023-12-02T01:56:47.649Z,992.8
2023-12-02T01:58:01.942Z,992.8
2023-12-02T01:59:16.236Z,992.8
2023-12-02T02:00:29.546Z,992.7
2023-12-02T02:01:43.839Z,992.7
2023-12-02T02:02:58.133Z,992.7
2023-12-02T02:04:12.427Z,992.7
2023-12-02T02:05:26.721Z,992.7
2023-12-02T02:06:41.015Z,992.7
2023-12-02T02:07:55.309Z,992.7
2023-12-02T02:09:09.603Z,992.7
2023-12-02T02:10:23.870Z,992.6
2023-12-02T02:11:38.190Z,992.7
2023-12-02T02:12:52.484Z,992.7
2023-12-02T02:14:06.777Z,992.7
2023-12-02T02:15:21.071Z,992.7
2023-12-02T02:16:34.381Z,992.6
2023-12-02T02:17:48.675Z,992.6
2023-12-02T02:19:02.969Z,992.6
2023-12-02T02:20:17.263Z,992.6
2023-12-02T02:21:31.557Z,992.6
2023-12-02T02:22:45.850Z,992.7
2023-12-02T02:24:00.144Z,992.7
2023-12-02T02:25:14.438Z,992.7
2023-12-02T02:26:28.731Z,992.7
2023-12-02T02:27:43.025Z,992.7
2023-12-02T02:28:57.319Z,992.7
2023-12-02T02:30:11.613Z,992.8
2023-12-02T02:31:25.906Z,992.8
2023-12-02T02:32:39.216Z,992.8
2023-12-02T02:33:53.510Z,992.9
2023-12-02T02:35:07.803Z,992.9
2023-12-02T02:36:22.097Z,992.9
2023-12-02T02:37:36.391Z,992.9
2023-12-02T02:38:50.684Z,992.9
2023-12-02T02:40:04.979Z,993
2023-12-02T02:41:19.272Z,993
2023-12-02T02:42:33.566Z,993
2023-12-02T02:43:47.860Z,993
2023-12-02T02:45:02.153Z,993
2023-12-02T02:46:16.447Z,993
2023-12-02T02:47:30.741Z,993.1
2023-12-02T02:48:44.050Z,993.1
2023-12-02T02:49:58.344Z,993.1
2023-12-02T02:51:12.638Z,993.1
2023-12-02T02:52:26.932Z,993.1
2023-12-02T02:53:41.225Z,993.1
2023-12-02T02:54:55.519Z,993.1
2023-12-02T02:56:09.813Z,993.1
2023-12-02T02:57:24.107Z,993.1
2023-12-02T02:58:38.401Z,993.1
2023-12-02T02:59:52.694Z,993.1
2023-12-02T03:01:06.988Z,993.1
2023-12-02T03:02:21.282Z,993.1
2023-12-02T03:03:35.576Z,993.1
2023-12-02T03:04:48.885Z,993.1
2023-12-02T03:06:03.179Z,993
2023-12-02T03:07:17.473Z,993
2023-12-02T03:08:31.766Z,993
2023-12-02T03:09:46.060Z,993
2023-12-02T03:11:00.354Z,993
2023-12-02T03:12:14.648Z,993
2023-12-02T03:13:28.941Z,993
2023-12-02T03:14:43.235Z,993
2023-12-02T03:15:57.528Z,993
2023-12-02T03:17:11.822Z,993
2023-12-02T03:18:26.116Z,993
2023-12-02T03:19:40.409Z,992.9
2023-12-02T03:20:53.719Z,992.9
2023-12-02T03:22:08.013Z,992.9
2023-12-02T03:23:22.307Z,992.9
2023-12-02T03:24:36.600Z,992.9
2023-12-02T03:25:50.894Z,992.9
2023-12-02T03:27:05.188Z,992.9
2023-12-02T03:28:19.482Z,992.8
2023-12-02T03:29:33.775Z,992.8
2023-12-02T03:30:48.069Z,992.8
2023-12-02T03:32:02.363Z,992.8
2023-12-02T03:33:16.657Z,992.7
2023-12-02T03:34:30.951Z,992.7
2023-12-02T03:35:45.244Z,992.7
2023-12-02T03:36:58.554Z,992.7
2023-12-02T03:38:12.848Z,992.7
2023-12-02T03:39:27.141Z,992.7
2023-12-02T03:40:41.435Z,992.7
2023-12-02T03:41:55.729Z,992.8
2023-12-02T03:43:10.022Z,992.8
2023-12-02T03:44:24.316Z,992.7
2023-12-02T03:45:38.610Z,992.7
2023-12-02T03:46:52.904Z,992.7
2023-12-02T03:48:07.197Z,992.7
2023-12-02T03:49:21.491Z,992.7
2023-12-02T03:50:35.785Z,992.7
2023-12-02T03:51:50.078Z,992.6
2023-12-02T03:53:03.388Z,992.6
2023-12-02T03:54:17.682Z,992.6
2023-12-02T03:55:31.976Z,992.6
2023-12-02T03:56:46.269Z,992.6
2023-12-02T03:58:00.563Z,992.6
2023-12-02T03:59:14.857Z,992.7
2023-12-02T04:00:29.150Z,992.7
2023-12-02T04:01:43.444Z,992.7
2023-12-02T04:02:57.737Z,992.7
2023-12-02T04:04:12.031Z,992.8
2023-12-02T04:05:26.325Z,992.8
2023-12-02T04:06:40.619Z,992.9
2023-12-02T04:07:54.914Z,992.9
2023-12-02T04:09:08.223Z,992.9
2023-12-02T04:10:22.517Z,992.9
2023-12-02T04:11:36.811Z,992.9
2023-12-02T04:12:51.104Z,992.9
2023-12-02T04:14:05.398Z,992.9
2023-12-02T04:15:19.693Z,992.9
2023-12-02T04:16:33.987Z,992.9
2023-12-02T04:17:48.280Z,992.9
2023-12-02T04:19:02.574Z,992.9
2023-12-02T04:20:16.868Z,992.9
2023-12-02T04:21:31.161Z,992.9
2023-12-02T04:22:45.455Z,992.9
2023-12-02T04:23:59.749Z,992.9
2023-12-02T04:25:13.058Z,992.9
2023-12-02T04:26:27.352Z,992.9
2023-12-02T04:27:41.646Z,992.9
2023-12-02T04:28:55.940Z,992.9
2023-12-02T04:30:10.234Z,993
2023-12-02T04:31:24.527Z,993
2023-12-02T04:32:37.842Z,993
2023-12-02T04:33:52.136Z,993
2023-12-02T04:35:06.430Z,993
2023-12-02T04:36:20.723Z,993
2023-12-02T04:37:35.017Z,993
2023-12-02T04:38:49.311Z,993
2023-12-02T04:40:03.605Z,993
2023-12-02T04:41:17.898Z,993.1
2023-12-02T04:42:32.192Z,993.1
2023-12-02T04:43:46.486Z,993.2
2023-12-02T04:45:00.779Z,993.2
2023-12-02T04:46:15.074Z,993.2
2023-12-02T04:47:29.368Z,993.1
2023-12-02T04:48:42.678Z,993.1
2023-12-02T04:49:56.972Z,993.1
2023-12-02T04:51:11.265Z,993.1
2023-12-02T04:52:25.559Z,993.1
2023-12-02T04:53:39.853Z,993.2
2023-12-02T04:54:54.146Z,993.2
2023-12-02T04:56:08.440Z,993.2
2023-12-02T04:57:22.734Z,993.2
2023-12-02T04:58:37.027Z,993.2
2023-12-02T04:59:51.321Z,993.3
2023-12-02T05:01:05.615Z,993.3
2023-12-02T05:02:19.909Z,993.3
2023-12-02T05:03:34.202Z,993.3
2023-12-02T05:04:47.512Z,993.3
2023-12-02T05:06:01.806Z,993.4
2023-12-02T05:07:16.099Z,993.4
2023-12-02T05:08:30.393Z,993.4
2023-12-02T05:09:44.687Z,993.5
2023-12-02T05:10:58.981Z,993.5
2023-12-02T05:12:13.274Z,993.4
2023-12-02T05:13:27.568Z,993.5
2023-12-02T05:14:41.862Z,993.5
2023-12-02T05:15:56.156Z,993.5
2023-12-02T05:17:10.449Z,993.5
2023-12-02T05:18:24.743Z,993.5
2023-12-02T05:19:39.037Z,993.5
2023-12-02T05:20:52.346Z,993.4
2023-12-02T05:22:06.641Z,993.4
2023-12-02T05:23:20.934Z,993.4
2023-12-02T05:24:35.228Z,993.5
2023-12-02T05:25:49.522Z,993.5
2023-12-02T05:27:03.815Z,993.5
2023-12-02T05:28:18.109Z,993.5
2023-12-02T05:29:32.403Z,993.4
2023-12-02T05:30:46.697Z,993.4
2023-12-02T05:32:00.991Z,993.3
2023-12-02T05:33:15.284Z,993.3
2023-12-02T05:34:29.578Z,993.3
2023-12-02T05:35:43.872Z,993.4
2023-12-02T05:36:57.181Z,993.4
2023-12-02T05:38:11.475Z,993.3
2023-12-02T05:39:25.752Z,993.3
2023-12-02T05:40:40.062Z,993.4
2023-12-02T05:41:54.356Z,993.4
2023-12-02T05:43:08.650Z,993.4
2023-12-02T05:44:22.944Z,993.4
2023-12-02T05:45:37.238Z,993.4
2023-12-02T05:46:51.531Z,993.4
2023-12-02T05:48:05.825Z,993.3
2023-12-02T05:49:20.119Z,993.3
2023-12-02T05:50:34.412Z,993.3
2023-12-02T05:51:48.706Z,993.4
2023-12-02T05:53:02.016Z,993.4
2023-12-02T05:54:16.310Z,993.4
2023-12-02T05:55:30.603Z,993.4
2023-12-02T05:56:44.897Z,993.3
2023-12-02T05:57:59.191Z,993.3
2023-12-02T05:59:13.484Z,993.3
2023-12-02T06:00:27.778Z,993.3
2023-12-02T06:01:42.072Z,993.2
2023-12-02T06:02:56.365Z,993.2
2023-12-02T06:04:10.659Z,993.2
2023-12-02T06:05:24.953Z,993.3
2023-12-02T06:06:39.247Z,993.3
2023-12-02T06:07:53.541Z,993.3
2023-12-02T06:09:06.851Z,993.4
2023-12-02T06:10:21.145Z,993.4
2023-12-02T06:11:35.438Z,993.4
2023-12-02T06:12:49.732Z,993.4
2023-12-02T06:14:04.026Z,993.4
2023-12-02T06:15:18.320Z,993.5
2023-12-02T06:16:32.614Z,993.4
2023-12-02T06:17:46.908Z,993.4
2023-12-02T06:19:01.202Z,993.5
2023-12-02T06:20:15.441Z,993.5
2023-12-02T06:21:29.692Z,993.5
2023-12-02T06:22:43.932Z,993.6
2023-12-02T06:23:58.172Z,993.6
2023-12-02T06:25:11.427Z,993.6
2023-12-02T06:26:25.668Z,993.6
2023-12-02T06:27:39.907Z,993.7
2023-12-02T06:28:54.147Z,993.7
2023-12-02T06:30:08.387Z,993.7
2023-12-02T06:31:22.626Z,993.7
2023-12-02T06:32:36.866Z,993.7
2023-12-02T06:33:51.106Z,993.7
2023-12-02T06:35:05.346Z,993.8
2023-12-02T06:36:19.586Z,993.8
2023-12-02T06:37:33.826Z,993.8
2023-12-02T06:38:48.065Z,993.9
2023-12-02T06:40:02.305Z,993.9
2023-12-02T06:41:15.561Z,993.9
2023-12-02T06:42:29.801Z,994
2023-12-02T06:43:44.041Z,994
2023-12-02T06:44:58.281Z,994
2023-12-02T06:46:12.521Z,994
2023-12-02T06:47:26.761Z,994
2023-12-02T06:48:41.000Z,994
2023-12-02T06:49:55.240Z,994
2023-12-02T06:51:09.480Z,994
2023-12-02T06:52:23.719Z,994
2023-12-02T06:53:37.959Z,994
2023-12-02T06:54:52.199Z,994.1
2023-12-02T06:56:06.439Z,994.1
2023-12-02T06:57:19.694Z,994.1
2023-12-02T06:58:33.935Z,994.1
2023-12-02T06:59:48.174Z,994.2
2023-12-02T07:01:02.414Z,994.2
2023-12-02T07:02:16.654Z,994.2
2023-12-02T07:03:30.894Z,994.3
2023-12-02T07:04:45.134Z,994.3
2023-12-02T07:05:59.374Z,994.3
2023-12-02T07:07:13.615Z,994.3
2023-12-02T07:08:27.855Z,994.3
2023-12-02T07:09:42.094Z,994.3
2023-12-02T07:10:56.334Z,994.3
2023-12-02T07:12:10.574Z,994.3
2023-12-02T07:13:23.829Z,994.3
2023-12-02T07:14:38.069Z,994.3
2023-12-02T07:15:52.309Z,994.3
2023-12-02T07:17:06.548Z,994.4
2023-12-02T07:18:20.788Z,994.4
2023-12-02T07:19:35.028Z,994.4
2023-12-02T07:20:49.268Z,994.4
2023-12-02T07:22:03.508Z,994.5
2023-12-02T07:23:17.747Z,994.5
2023-12-02T07:24:31.987Z,994.5
2023-12-02T07:25:46.227Z,994.5
2023-12-02T07:27:00.466Z,994.5
2023-12-02T07:28:14.706Z,994.5
2023-12-02T07:29:27.962Z,994.5
2023-12-02T07:30:42.202Z,994.5
2023-12-02T07:31:56.442Z,994.5
2023-12-02T07:33:10.682Z,994.5
2023-12-02T07:34:24.922Z,994.5
2023-12-02T07:35:39.162Z,994.6
2023-12-02T07:36:53.402Z,994.6
2023-12-02T07:38:07.641Z,994.6
2023-12-02T07:39:21.881Z,994.6
2023-12-02T07:40:36.121Z,994.6
2023-12-02T07:41:50.361Z,994.6
2023-12-02T07:43:04.600Z,994.6
2023-12-02T07:44:18.840Z,994.6
2023-12-02T07:45:32.096Z,994.6
2023-12-02T07:46:46.335Z,994.6
2023-12-02T07:48:00.575Z,994.7
2023-12-02T07:49:14.815Z,994.7
2023-12-02T07:50:29.054Z,994.7
2023-12-02T07:51:43.294Z,994.7
2023-12-02T07:52:57.534Z,994.7
2023-12-02T07:54:11.774Z,994.7
2023-12-02T07:55:26.013Z,994.7
2023-12-02T07:56:40.253Z,994.7
2023-12-02T07:57:54.493Z,994.7
2023-12-02T07:59:08.732Z,994.7
2023-12-02T08:00:22.972Z,994.7
2023-12-02T08:01:36.228Z,994.7
2023-12-02T08:02:50.468Z,994.7
2023-12-02T08:04:04.708Z,994.7
2023-12-02T08:05:18.947Z,994.7
2023-12-02T08:06:33.187Z,994.7
2023-12-02T08:07:47.427Z,994.7
2023-12-02T08:09:01.666Z,994.8
2023-12-02T08:10:15.906Z,994.7
2023-12-02T08:11:30.146Z,994.7
2023-12-02T08:12:44.386Z,994.7
2023-12-02T08:15:12.865Z,994.7
2023-12-02T08:16:27.105Z,994.7
2023-12-02T08:17:40.361Z,994.7
2023-12-02T08:18:54.601Z,994.7
2023-12-02T08:20:08.840Z,994.7
2023-12-02T08:21:23.080Z,994.8
2023-12-02T08:22:37.320Z,994.8
2023-12-02T08:23:51.560Z,994.8
2023-12-02T08:25:05.800Z,994.8
2023-12-02T08:26:20.039Z,994.8
2023-12-02T08:27:34.279Z,994.8
2023-12-02T08:28:48.519Z,994.8
2023-12-02T08:31:16.998Z,994.8
2023-12-02T08:32:31.238Z,994.8
2023-12-02T08:33:44.494Z,994.8
2023-12-02T08:34:58.734Z,994.9
2023-12-02T08:36:12.974Z,994.9
2023-12-02T08:37:27.213Z,994.9
2023-12-02T08:38:41.453Z,994.9
2023-12-02T08:39:55.693Z,994.9
2023-12-02T08:41:08.954Z,994.9
2023-12-02T08:42:23.193Z,994.8
2023-12-02T08:43:37.433Z,994.8
2023-12-02T08:44:51.673Z,994.8
2023-12-02T08:46:05.913Z,994.8
2023-12-02T08:47:20.152Z,994.8
2023-12-02T08:48:34.392Z,994.8
2023-12-02T08:49:48.632Z,994.8
2023-12-02T08:51:02.871Z,994.8
2023-12-02T08:53:31.351Z,994.9
2023-12-02T08:54:45.591Z,994.9
2023-12-02T08:55:59.831Z,995
2023-12-02T08:57:13.086Z,995
2023-12-02T08:58:27.326Z,995
2023-12-02T08:59:41.566Z,995
2023-12-02T09:00:55.805Z,995
2023-12-02T09:02:10.045Z,995
2023-12-02T09:03:24.285Z,995
2023-12-02T09:04:38.524Z,995
2023-12-02T09:05:52.764Z,995.1
2023-12-02T09:07:07.004Z,995.1
2023-12-02T09:08:21.244Z,995.2
2023-12-02T09:09:35.483Z,995.2
2023-12-02T09:10:49.723Z,995.2
2023-12-02T09:12:03.962Z,995.2
2023-12-02T09:13:17.218Z,995.2
2023-12-02T09:14:31.458Z,995.3
2023-12-02T09:15:45.697Z,995.3
2023-12-02T09:16:59.937Z,995.3
2023-12-02T09:18:14.177Z,995.3
2023-12-02T09:19:28.416Z,995.3
2023-12-02T09:20:42.656Z,995.3
2023-12-02T09:21:56.896Z,995.3
2023-12-02T09:23:11.135Z,995.4
2023-12-02T09:24:25.375Z,995.4
2023-12-02T09:25:39.614Z,995.4
2023-12-02T09:26:53.854Z,995.4
2023-12-02T09:28:08.094Z,995.5
2023-12-02T09:29:21.349Z,995.5
2023-12-02T09:30:35.589Z,995.5
2023-12-02T09:31:49.828Z,995.5
2023-12-02T09:33:04.068Z,995.5
2023-12-02T09:34:18.307Z,995.5
2023-12-02T09:35:32.547Z,995.5
2023-12-02T09:36:46.786Z,995.5
2023-12-02T09:38:01.026Z,995.5
2023-12-02T09:39:15.266Z,995.5
2023-12-02T09:40:29.505Z,995.5
2023-12-02T09:41:43.745Z,995.5
2023-12-02T09:42:57.984Z,995.6
2023-12-02T09:44:12.224Z,995.6
2023-12-02T09:45:25.479Z,995.6
2023-12-02T09:46:39.719Z,995.6
2023-12-02T09:47:53.958Z,995.6
2023-12-02T09:49:08.198Z,995.6
2023-12-02T09:50:22.427Z,995.6
2023-12-02T09:51:36.677Z,995.5
2023-12-02T09:52:50.917Z,995.5
2023-12-02T09:54:05.156Z,995.5
2023-12-02T09:55:19.396Z,995.5
2023-12-02T09:56:33.635Z,995.5
2023-12-02T09:57:47.875Z,995.5
2023-12-02T09:59:02.114Z,995.4
2023-12-02T10:00:16.354Z,995.4
2023-12-02T10:01:29.609Z,995.4
2023-12-02T10:02:43.849Z,995.4
2023-12-02T10:03:58.088Z,995.4
2023-12-02T10:05:12.328Z,995.4
2023-12-02T10:06:26.567Z,995.4
2023-12-02T10:07:40.807Z,995.4
2023-12-02T10:08:55.046Z,995.4
2023-12-02T10:10:09.286Z,995.4
2023-12-02T10:11:23.525Z,995.4
2023-12-02T10:12:37.765Z,995.4
2023-12-02T10:13:52.004Z,995.4
2023-12-02T10:15:06.244Z,995.3
2023-12-02T10:16:20.483Z,995.3
2023-12-02T10:17:33.739Z,995.3
2023-12-02T10:18:47.979Z,995.3
2023-12-02T10:20:02.219Z,995.3
2023-12-02T10:21:16.458Z,995.3
2023-12-02T10:22:30.698Z,995.2
2023-12-02T10:23:44.937Z,995.2
2023-12-02T10:24:59.176Z,995.2
2023-12-02T10:26:13.416Z,995.3
2023-12-02T10:27:27.655Z,995.3
2023-12-02T10:28:41.895Z,995.3
2023-12-02T10:29:56.134Z,995.3
2023-12-02T10:31:10.373Z,995.3
2023-12-02T10:32:24.613Z,995.3
2023-12-02T10:33:37.868Z,995.3
2023-12-02T10:34:52.108Z,995.3
2023-12-02T10:36:06.347Z,995.3
2023-12-02T10:37:20.586Z,995.3
2023-12-02T10:38:34.826Z,995.3
2023-12-02T10:39:49.065Z,995.3
2023-12-02T10:41:03.304Z,995.3
2023-12-02T10:42:17.544Z,995.3
2023-12-02T10:43:31.783Z,995.3
2023-12-02T10:44:46.023Z,995.2
2023-12-02T10:46:00.262Z,995.2
2023-12-02T10:47:14.501Z,995.2
2023-12-02T10:48:28.741Z,995.2
2023-12-02T10:49:41.996Z,995.2
2023-12-02T10:50:56.235Z,995.3
2023-12-02T10:52:10.475Z,995.3
2023-12-02T10:53:24.714Z,995.2
2023-12-02T10:54:38.954Z,995.2
2023-12-02T10:55:53.193Z,995.2
2023-12-02T10:57:07.433Z,995.2
2023-12-02T10:58:21.672Z,995.2
2023-12-02T10:59:35.911Z,995.2
2023-12-02T11:00:50.151Z,995.2
2023-12-02T11:02:04.390Z,995.2
2023-12-02T11:03:18.629Z,995.2
2023-12-02T11:04:32.869Z,995.2
2023-12-02T11:05:46.125Z,995.3
2023-12-02T11:07:00.364Z,995.3
2023-12-02T11:08:14.603Z,995.3
2023-12-02T11:09:28.843Z,995.3
2023-12-02T11:10:43.082Z,995.3
2023-12-02T11:11:57.321Z,995.3
2023-12-02T11:13:11.561Z,995.3
2023-12-02T11:14:25.800Z,995.3
2023-12-02T11:15:40.040Z,995.3
2023-12-02T11:16:54.279Z,995.3
2023-12-02T11:18:08.519Z,995.3
2023-12-02T11:19:22.758Z,995.3
2023-12-02T11:20:36.998Z,995.3
2023-12-02T11:21:50.254Z,995.2
2023-12-02T11:23:04.493Z,995.2
2023-12-02T11:24:18.732Z,995.2
2023-12-02T11:25:32.973Z,995.2
2023-12-02T11:26:47.212Z,995.2
2023-12-02T11:28:01.452Z,995.3
2023-12-02T11:29:15.674Z,995.3
2023-12-02T11:30:29.931Z,995.3
2023-12-02T11:31:44.170Z,995.3
2023-12-02T11:32:58.409Z,995.3
2023-12-02T11:34:12.649Z,995.3
2023-12-02T11:35:26.888Z,995.3
2023-12-02T11:36:41.128Z,995.3
2023-12-02T11:37:54.384Z,995.3
2023-12-02T11:39:08.623Z,995.3
2023-12-02T11:40:22.863Z,995.2
2023-12-02T11:41:37.102Z,995.3
2023-12-02T11:42:51.342Z,995.3
2023-12-02T11:44:05.581Z,995.3
2023-12-02T11:45:19.809Z,995.3
2023-12-02T11:46:34.060Z,995.3
2023-12-02T11:47:48.300Z,995.3
2023-12-02T11:49:02.539Z,995.3
2023-12-02T11:50:16.779Z,995.3
2023-12-02T11:51:31.018Z,995.3
2023-12-02T11:52:45.258Z,995.3
2023-12-02T11:53:58.514Z,995.3
2023-12-02T11:55:12.753Z,995.3
2023-12-02T11:56:26.994Z,995.3
2023-12-02T11:57:41.233Z,995.4
2023-12-02T11:58:55.473Z,995.4
2023-12-02T12:00:09.713Z,995.4
2023-12-02T12:01:23.952Z,995.4
2023-12-02T12:02:38.192Z,995.5
2023-12-02T12:03:52.431Z,995.5
2023-12-02T12:05:06.671Z,995.5
2023-12-02T12:06:20.910Z,995.5
2023-12-02T12:07:35.150Z,995.6
2023-12-02T12:08:49.390Z,995.6
2023-12-02T12:10:02.645Z,995.6
2023-12-02T12:11:16.885Z,995.7
2023-12-02T12:12:31.124Z,995.7
2023-12-02T12:13:45.364Z,995.7
2023-12-02T12:14:59.603Z,995.7
2023-12-02T12:16:13.843Z,995.8
2023-12-02T12:17:28.083Z,995.8
2023-12-02T12:18:42.322Z,995.8
2023-12-02T12:19:56.562Z,995.8
2023-12-02T12:21:10.801Z,995.8
2023-12-02T12:22:25.041Z,995.8
2023-12-02T12:23:39.281Z,995.8
2023-12-02T12:24:53.520Z,995.8
2023-12-02T12:26:06.776Z,995.8
2023-12-02T12:27:21.015Z,995.9
2023-12-02T12:28:35.255Z,995.9
2023-12-02T12:29:49.494Z,995.9
2023-12-02T12:31:03.734Z,996
2023-12-02T12:32:17.974Z,996
2023-12-02T12:33:32.213Z,996
2023-12-02T12:34:46.453Z,996
2023-12-02T12:36:00.693Z,996
2023-12-02T12:37:14.932Z,996
2023-12-02T12:38:29.172Z,996
2023-12-02T12:39:43.411Z,996
2023-12-02T12:40:57.651Z,996
2023-12-02T12:42:10.907Z,996
2023-12-02T12:44:39.386Z,996
2023-12-02T12:45:53.626Z,996
2023-12-02T12:47:07.865Z,996
2023-12-02T12:48:22.105Z,996
2023-12-02T12:49:35.366Z,996
2023-12-02T12:50:49.595Z,996
2023-12-02T12:52:03.845Z,996
2023-12-02T12:53:18.085Z,996
2023-12-02T12:54:32.324Z,996
2023-12-02T12:55:46.564Z,996
2023-12-02T12:57:00.803Z,996
2023-12-02T12:58:15.041Z,996
2023-12-02T12:59:29.282Z,995.9
2023-12-02T13:00:43.522Z,995.9
2023-12-02T13:01:57.762Z,995.8
2023-12-02T13:03:12.002Z,995.8
2023-12-02T13:04:26.241Z,995.7
2023-12-02T13:05:39.497Z,995.7
2023-12-02T13:06:53.736Z,995.7
2023-12-02T13:08:07.976Z,995.7
2023-12-02T13:09:22.216Z,995.7
2023-12-02T13:10:36.455Z,995.8
2023-12-02T13:11:50.695Z,995.8
2023-12-02T13:13:04.926Z,995.8
2023-12-02T13:14:19.174Z,995.8
2023-12-02T13:15:33.414Z,995.8
2023-12-02T13:16:47.653Z,995.8
2023-12-02T13:18:01.893Z,995.8
2023-12-02T13:19:16.132Z,995.8
2023-12-02T13:20:30.367Z,995.8
2023-12-02T13:21:43.628Z,995.8
2023-12-02T13:22:57.867Z,995.9
2023-12-02T13:24:12.107Z,995.9
2023-12-02T13:25:26.347Z,995.9
2023-12-02T13:26:40.586Z,996
2023-12-02T13:27:54.826Z,996
2023-12-02T13:29:09.065Z,996.1
2023-12-02T13:30:23.305Z,996.1
2023-12-02T13:31:37.545Z,996.2
2023-12-02T13:32:51.784Z,996.2
2023-12-02T13:34:06.024Z,996.2
2023-12-02T13:35:20.264Z,996.2
2023-12-02T13:36:34.503Z,996.2
2023-12-02T13:37:47.759Z,996.2
2023-12-02T13:39:01.998Z,996.3
2023-12-02T13:40:16.238Z,996.3
2023-12-02T13:41:30.462Z,996.4
2023-12-02T13:42:44.717Z,996.4
2023-12-02T13:43:58.957Z,996.4
2023-12-02T13:45:13.196Z,996.4
2023-12-02T13:46:27.436Z,996.4
2023-12-02T13:47:41.676Z,996.4
2023-12-02T13:48:55.915Z,996.4
2023-12-02T13:50:10.155Z,996.4
2023-12-02T13:51:24.395Z,996.5
2023-12-02T13:52:38.627Z,996.5
2023-12-02T13:53:51.890Z,996.5
2023-12-02T13:55:06.129Z,996.6
2023-12-02T13:56:20.369Z,996.6
2023-12-02T13:57:34.609Z,996.6
2023-12-02T13:58:48.849Z,996.7
2023-12-02T14:00:03.088Z,996.7
2023-12-02T14:01:17.328Z,996.8
2023-12-02T14:02:31.567Z,996.8
2023-12-02T14:03:45.807Z,996.8
2023-12-02T14:05:00.047Z,996.8
2023-12-02T14:06:14.286Z,996.9
2023-12-02T14:07:28.526Z,996.9
2023-12-02T14:08:42.766Z,996.9
2023-12-02T14:09:56.013Z,996.9
2023-12-02T14:11:10.261Z,997
2023-12-02T14:12:24.501Z,997
2023-12-02T14:13:38.740Z,997
2023-12-02T14:14:52.980Z,997
2023-12-02T14:16:07.220Z,997
2023-12-02T14:17:21.459Z,997
2023-12-02T14:18:35.699Z,997
2023-12-02T14:19:49.939Z,997
2023-12-02T14:21:04.178Z,997
2023-12-02T14:22:18.418Z,997.1
2023-12-02T14:23:32.659Z,997.1
2023-12-02T14:24:46.898Z,997.1
2023-12-02T14:26:00.154Z,997.1
2023-12-02T14:28:28.633Z,997.2
2023-12-02T14:29:42.873Z,997.3
2023-12-02T14:30:57.113Z,997.3
2023-12-02T14:32:11.353Z,997.3
2023-12-02T14:33:25.592Z,997.3
2023-12-02T14:34:39.832Z,997.4
2023-12-02T14:35:54.072Z,997.4
2023-12-02T14:37:08.311Z,997.4
2023-12-02T14:38:22.552Z,997.4
2023-12-02T14:39:36.792Z,997.4
2023-12-02T14:40:51.032Z,997.5
2023-12-02T14:42:04.287Z,997.5
2023-12-02T14:43:18.527Z,997.4
2023-12-02T14:44:32.767Z,997.5
2023-12-02T14:45:47.006Z,997.4
2023-12-02T14:47:01.246Z,997.5
2023-12-02T14:48:15.486Z,997.5
2023-12-02T14:49:29.725Z,997.5
2023-12-02T14:50:43.965Z,997.5
2023-12-02T14:51:58.205Z,997.6
2023-12-02T14:53:12.445Z,997.6
2023-12-02T14:54:26.685Z,997.6
2023-12-02T14:55:40.925Z,997.6
2023-12-02T14:56:55.165Z,997.6
2023-12-02T14:58:08.421Z,997.7
2023-12-02T14:59:22.660Z,997.7
2023-12-02T15:00:36.900Z,997.8
2023-12-02T15:01:51.140Z,997.8
2023-12-02T15:03:05.380Z,997.8
2023-12-02T15:04:19.619Z,997.8
2023-12-02T15:05:33.859Z,997.9
2023-12-02T15:06:48.099Z,997.9
2023-12-02T15:08:02.338Z,997.9
2023-12-02T15:09:16.578Z,997.9
2023-12-02T15:10:30.818Z,997.9
2023-12-02T15:11:45.058Z,997.9
2023-12-02T15:12:59.298Z,997.9
2023-12-02T15:14:12.553Z,998
2023-12-02T15:15:26.793Z,998
2023-12-02T15:16:41.033Z,998
2023-12-02T15:17:55.273Z,998
2023-12-02T15:19:09.512Z,998
2023-12-02T15:20:23.752Z,998
2023-12-02T15:21:37.992Z,998
2023-12-02T15:22:52.232Z,998
2023-12-02T15:24:06.472Z,998
2023-12-02T15:25:20.712Z,998
2023-12-02T15:26:34.952Z,998
2023-12-02T15:27:49.192Z,998
2023-12-02T15:29:03.431Z,998
2023-12-02T15:30:16.687Z,998.1
2023-12-02T15:31:30.927Z,998.1
2023-12-02T15:32:45.166Z,998.1
2023-12-02T15:33:59.406Z,998.1
2023-12-02T15:35:13.646Z,998.1
2023-12-02T15:36:27.886Z,998.2
2023-12-02T15:37:42.125Z,998.2
2023-12-02T15:38:56.420Z,998.2
2023-12-02T15:40:10.713Z,998.2
2023-12-02T15:41:24.964Z,998.3
2023-12-02T15:42:39.205Z,998.3
2023-12-02T15:43:53.499Z,998.3
2023-12-02T15:45:07.793Z,998.3
2023-12-02T15:46:21.103Z,998.3
2023-12-02T15:47:35.397Z,998.3
2023-12-02T15:48:49.690Z,998.3
2023-12-02T15:50:03.984Z,998.3
2023-12-02T15:51:18.277Z,998.3
2023-12-02T15:52:32.571Z,998.3
2023-12-02T15:53:46.865Z,998.3
2023-12-02T15:55:01.159Z,998.3
2023-12-02T15:56:15.452Z,998.3
2023-12-02T15:57:29.746Z,998.3
2023-12-02T15:58:44.040Z,998.3
2023-12-02T15:59:58.333Z,998.3
2023-12-02T16:01:12.627Z,998.4
2023-12-02T16:02:25.937Z,998.4
2023-12-02T16:03:40.231Z,998.4
2023-12-02T16:04:54.524Z,998.4
2023-12-02T16:06:08.818Z,998.4
2023-12-02T16:07:23.112Z,998.4
2023-12-02T16:08:37.406Z,998.5
2023-12-02T16:09:51.699Z,998.5